createdAt,value
2023-04-20T00:01:31.848Z,30.93
2023-04-20T00:03:59.998Z,32.40
2023-04-20T00:06:29.829Z,31.10
2023-04-20T00:08:58.123Z,30.23
2023-04-20T00:11:26.636Z,37.40
2023-04-20T00:13:56.059Z,31.43
2023-04-20T00:16:24.516Z,31.90
2023-04-20T00:18:52.589Z,33.00
2023-04-20T00:21:23.868Z,34.53
2023-04-20T00:23:52.700Z,38.43
2023-04-20T00:26:21.527Z,35.70
2023-04-20T00:28:55.033Z,36.53
2023-04-20T00:31:23.147Z,30.50
2023-04-20T00:33:51.262Z,32.03
2023-04-20T00:36:19.348Z,30.77
2023-04-20T00:38:47.415Z,35.60
2023-04-20T00:41:15.521Z,32.33
2023-04-20T00:43:52.040Z,35.03
2023-04-20T00:46:21.895Z,31.30
2023-04-20T00:48:51.783Z,30.10
2023-04-20T00:51:20.557Z,30.50
2023-04-20T00:53:48.563Z,33.17
2023-04-20T00:56:17.230Z,28.70
2023-04-20T00:58:45.239Z,29.17
2023-04-20T01:01:17.499Z,30.23
2023-04-20T01:03:48.966Z,30.80
2023-04-20T01:06:18.517Z,32.43
2023-04-20T01:08:48.566Z,31.57
2023-04-20T01:11:16.573Z,29.37
2023-04-20T01:13:45.105Z,26.87
2023-04-20T01:16:13.295Z,29.67
2023-04-20T01:18:46.502Z,32.43
2023-04-20T01:21:18.762Z,28.53
2023-04-20T01:23:48.477Z,30.70
2023-04-20T01:26:18.347Z,29.60
2023-04-20T01:28:47.110Z,26.97
2023-04-20T01:31:16.889Z,28.17
2023-04-20T01:33:44.986Z,30.60
2023-04-20T01:36:13.059Z,27.07
2023-04-20T01:38:41.219Z,25.37
2023-04-20T01:41:11.635Z,27.73
2023-04-20T01:43:40.689Z,26.67
2023-04-20T01:46:08.973Z,26.80
2023-04-20T01:48:37.105Z,24.53
2023-04-20T01:51:05.353Z,25.07
2023-04-20T01:53:34.105Z,26.70
2023-04-20T01:56:02.077Z,26.53
2023-04-20T01:58:31.615Z,25.13
2023-04-20T02:00:59.702Z,26.23
2023-04-20T02:03:28.646Z,28.17
2023-04-20T02:05:57.030Z,29.13
2023-04-20T02:08:29.478Z,23.00
2023-04-20T02:10:57.430Z,27.90
2023-04-20T02:13:25.701Z,23.63
2023-04-20T02:15:55.598Z,24.73
2023-04-20T02:18:24.476Z,24.73
2023-04-20T02:20:52.590Z,23.10
2023-04-20T02:23:20.602Z,27.37
2023-04-20T02:25:48.638Z,27.63
2023-04-20T02:28:16.616Z,25.37
2023-04-20T02:30:44.706Z,24.40
2023-04-20T02:33:14.487Z,24.43
2023-04-20T02:35:42.549Z,26.73
2023-04-20T02:38:12.207Z,23.93
2023-04-20T02:40:40.383Z,25.10
2023-04-20T02:43:09.321Z,26.80
2023-04-20T02:45:38.841Z,26.00
2023-04-20T02:48:08.418Z,23.57
2023-04-20T02:50:39.085Z,27.67
2023-04-20T02:53:15.529Z,22.20
2023-04-20T02:55:46.290Z,20.23
2023-04-20T02:58:34.249Z,24.43
2023-04-20T03:01:16.628Z,21.23
2023-04-20T03:03:46.848Z,23.60
2023-04-20T03:06:17.051Z,21.43
2023-04-20T03:08:50.894Z,22.17
2023-04-20T03:11:48.158Z,24.30
2023-04-20T03:14:29.524Z,25.60
2023-04-20T03:16:57.589Z,24.67
2023-04-20T03:19:25.886Z,29.50
2023-04-20T03:21:55.224Z,26.00
2023-04-20T03:24:24.090Z,27.33
2023-04-20T03:26:52.744Z,28.33
2023-04-20T03:29:29.730Z,29.37
2023-04-20T03:31:58.021Z,29.67
2023-04-20T03:34:26.730Z,28.00
2023-04-20T03:36:56.791Z,28.80
2023-04-20T03:39:24.878Z,26.17
2023-04-20T03:41:52.829Z,26.00
2023-04-20T03:44:20.795Z,27.70
2023-04-20T03:46:48.808Z,30.60
2023-04-20T03:49:17.075Z,34.00
2023-04-20T03:51:45.646Z,25.07
2023-04-20T03:54:15.001Z,27.13
2023-04-20T03:56:44.640Z,27.43
2023-04-20T03:59:13.836Z,31.97
2023-04-20T04:01:45.121Z,32.27
2023-04-20T04:04:14.679Z,28.03
2023-04-20T04:06:42.882Z,29.27
2023-04-20T04:09:10.845Z,27.40
2023-04-20T04:11:40.264Z,26.27
2023-04-20T04:14:08.335Z,30.70
2023-04-20T04:16:38.323Z,26.70
2023-04-20T04:19:06.368Z,27.63
2023-04-20T04:21:35.434Z,28.90
2023-04-20T04:24:05.922Z,29.03
2023-04-20T04:26:43.883Z,33.30
2023-04-20T04:29:14.007Z,28.33
2023-04-20T04:31:42.180Z,34.33
2023-04-20T04:34:18.312Z,30.23
2023-04-20T04:36:50.713Z,28.07
2023-04-20T04:39:24.423Z,33.27
2023-04-20T04:42:04.796Z,29.63
2023-04-20T04:44:40.952Z,30.67
2023-04-20T04:47:11.865Z,33.13
2023-04-20T04:49:43.615Z,29.63
2023-04-20T04:52:13.272Z,31.57
2023-04-20T04:54:41.391Z,31.93
2023-04-20T04:57:10.959Z,34.43
2023-04-20T04:59:38.974Z,31.57
2023-04-20T05:02:07.085Z,35.83
2023-04-20T05:04:35.388Z,33.90
2023-04-20T05:07:03.438Z,36.23
2023-04-20T05:09:33.514Z,33.83
2023-04-20T05:12:03.077Z,30.10
2023-04-20T05:14:33.505Z,37.17
2023-04-20T05:17:02.066Z,28.80
2023-04-20T05:19:30.172Z,34.70
2023-04-20T05:21:58.248Z,46.40
2023-04-20T05:24:26.347Z,94.23
2023-04-20T05:26:54.389Z,64.20
2023-04-20T05:29:22.491Z,30.73
2023-04-20T05:31:51.854Z,29.40
2023-04-20T05:34:19.865Z,30.77
2023-04-20T05:36:48.320Z,27.43
2023-04-20T05:39:16.660Z,20.90
2023-04-20T05:41:45.097Z,23.47
2023-04-20T05:44:13.273Z,19.80
2023-04-20T05:46:41.273Z,16.13
2023-04-20T05:49:10.699Z,18.03
2023-04-20T05:51:38.682Z,14.87
2023-04-20T05:54:06.915Z,19.10
2023-04-20T05:56:35.081Z,18.33
2023-04-20T05:59:03.337Z,15.43
2023-04-20T06:01:31.625Z,17.00
2023-04-20T06:03:59.850Z,15.53
2023-04-20T06:06:29.594Z,18.33
2023-04-20T06:08:58.350Z,15.70
2023-04-20T06:11:26.522Z,17.20
2023-04-20T06:13:54.555Z,19.27
2023-04-20T06:16:22.583Z,16.30
2023-04-20T06:18:50.934Z,16.10
2023-04-20T06:21:19.511Z,13.47
2023-04-20T06:23:48.819Z,12.67
2023-04-20T06:26:16.908Z,16.60
2023-04-20T06:28:45.516Z,18.33
2023-04-20T06:31:13.520Z,14.80
2023-04-20T06:33:41.520Z,18.63
2023-04-20T06:36:09.762Z,14.03
2023-04-20T06:38:37.781Z,22.07
2023-04-20T06:41:07.219Z,13.47
2023-04-20T06:43:35.260Z,12.93
2023-04-20T06:46:03.387Z,14.53
2023-04-20T06:48:32.735Z,34.27
2023-04-20T06:51:01.243Z,12.90
2023-04-20T06:53:29.297Z,15.80
2023-04-20T06:55:57.840Z,14.83
2023-04-20T06:58:42.559Z,12.67
2023-04-20T07:01:10.915Z,15.67
2023-04-20T07:03:39.254Z,15.30
2023-04-20T07:06:11.112Z,17.13
2023-04-20T07:08:40.416Z,16.87
2023-04-20T07:11:08.418Z,15.83
2023-04-20T07:13:37.778Z,19.70
2023-04-20T07:16:06.563Z,15.50
2023-04-20T07:18:35.363Z,20.53
2023-04-20T07:21:03.807Z,13.03
2023-04-20T07:23:31.761Z,23.40
2023-04-20T07:25:59.793Z,23.33
2023-04-20T07:28:27.780Z,12.63
2023-04-20T07:30:57.097Z,13.43
2023-04-20T07:33:25.268Z,12.73
2023-04-20T07:35:53.424Z,32.03
2023-04-20T07:38:21.533Z,16.17
2023-04-20T07:40:49.530Z,16.60
2023-04-20T07:43:17.605Z,14.03
2023-04-20T07:45:45.654Z,17.13
2023-04-20T07:48:15.129Z,16.97
2023-04-20T07:50:43.161Z,12.53
2023-04-20T07:53:11.294Z,17.20
2023-04-20T07:55:39.549Z,15.20
2023-04-20T07:58:07.617Z,15.97
2023-04-20T08:00:35.775Z,14.07
2023-04-20T08:03:04.032Z,12.87
2023-04-20T08:05:33.804Z,13.13
2023-04-20T08:08:01.863Z,15.43
2023-04-20T08:10:29.869Z,15.47
2023-04-20T08:12:58.548Z,12.00
2023-04-20T08:15:26.761Z,10.10
2023-04-20T08:17:54.842Z,18.87
2023-04-20T08:20:22.973Z,13.10
2023-04-20T08:22:53.275Z,12.90
2023-04-20T08:25:21.332Z,12.40
2023-04-20T08:27:49.445Z,14.97
2023-04-20T08:30:17.378Z,15.40
2023-04-20T08:32:45.377Z,15.20
2023-04-20T08:35:13.651Z,15.80
2023-04-20T08:37:42.081Z,15.57
2023-04-20T08:40:12.527Z,27.37
2023-04-20T08:42:40.660Z,14.70
2023-04-20T08:45:09.638Z,14.77
2023-04-20T08:47:38.542Z,16.40
2023-04-20T08:50:08.089Z,18.70
2023-04-20T08:52:38.649Z,19.33
2023-04-20T08:55:08.229Z,14.77
2023-04-20T08:57:37.531Z,13.13
2023-04-20T09:00:12.067Z,21.33
2023-04-20T09:02:51.500Z,11.63
2023-04-20T09:05:27.798Z,20.90
2023-04-20T09:07:57.923Z,12.13
2023-04-20T09:10:26.579Z,14.53
2023-04-20T09:12:55.938Z,13.60
2023-04-20T09:15:28.258Z,9.30
2023-04-20T09:17:56.580Z,13.77
2023-04-20T09:20:32.022Z,11.50
2023-04-20T09:23:11.914Z,8.60
2023-04-20T09:25:41.123Z,20.57
2023-04-20T09:28:11.424Z,10.93
2023-04-20T09:30:40.731Z,15.83
2023-04-20T09:33:10.913Z,12.70
2023-04-20T09:35:40.399Z,10.02
2023-04-20T09:38:08.402Z,16.70
2023-04-20T09:40:37.203Z,17.42
2023-04-20T09:43:09.844Z,9.05
2023-04-20T09:45:40.621Z,12.73
2023-04-20T09:48:09.282Z,9.70
2023-04-20T09:50:47.922Z,8.87
2023-04-20T09:53:18.619Z,7.27
2023-04-20T09:55:47.705Z,7.57
2023-04-20T09:58:15.981Z,15.30
2023-04-20T10:00:45.300Z,6.63
2023-04-20T10:03:17.185Z,12.57
2023-04-20T10:05:45.535Z,11.07
2023-04-20T10:08:13.717Z,14.38
2023-04-20T10:10:46.570Z,14.07
2023-04-20T10:13:15.195Z,5.82
2023-04-20T10:15:45.277Z,16.35
2023-04-20T10:18:18.681Z,7.88
2023-04-20T10:20:47.457Z,7.18
2023-04-20T10:23:16.611Z,10.93
2023-04-20T10:25:47.464Z,6.53
2023-04-20T10:28:15.772Z,8.73
2023-04-20T10:30:54.417Z,5.13
2023-04-20T10:33:22.933Z,8.43
2023-04-20T10:35:54.608Z,6.07
2023-04-20T10:38:33.018Z,5.17
2023-04-20T10:41:08.123Z,11.03
2023-04-20T10:43:38.970Z,13.07
2023-04-20T10:46:16.554Z,6.53
2023-04-20T10:49:03.842Z,6.25
2023-04-20T10:51:32.337Z,7.97
2023-04-20T10:54:06.019Z,6.57
2023-04-20T10:56:41.855Z,7.78
2023-04-20T10:59:14.235Z,6.35
2023-04-20T11:01:44.410Z,10.10
2023-04-20T11:04:14.094Z,7.30
2023-04-20T11:06:44.312Z,7.20
2023-04-20T11:09:20.367Z,9.70
2023-04-20T11:12:00.198Z,4.78
2023-04-20T11:14:28.140Z,6.03
2023-04-20T11:16:57.608Z,6.35
2023-04-20T11:19:29.122Z,8.05
2023-04-20T11:21:57.677Z,8.80
2023-04-20T11:24:26.964Z,9.48
2023-04-20T11:26:56.727Z,5.88
2023-04-20T11:29:29.965Z,5.75
2023-04-20T11:31:59.933Z,13.25
2023-04-20T11:34:28.288Z,7.20
2023-04-20T11:36:57.043Z,8.68
2023-04-20T11:39:25.851Z,5.38
2023-04-20T11:41:54.102Z,5.32
2023-04-20T11:44:22.619Z,6.60
2023-04-20T11:46:53.223Z,6.93
2023-04-20T11:49:22.913Z,7.68
2023-04-20T11:51:51.455Z,7.97
2023-04-20T11:54:20.148Z,5.75
2023-04-20T11:56:48.233Z,4.72
2023-04-20T11:59:19.733Z,7.85
2023-04-20T12:01:48.459Z,4.65
2023-04-20T12:04:17.000Z,10.30
2023-04-20T12:06:46.671Z,5.20
2023-04-20T12:09:14.866Z,4.65
2023-04-20T12:11:42.876Z,8.40
2023-04-20T12:14:10.792Z,8.38
2023-04-20T12:16:38.730Z,5.32
2023-04-20T12:19:06.661Z,12.90
2023-04-20T12:21:34.669Z,8.02
2023-04-20T12:24:04.730Z,3.72
2023-04-20T12:26:38.324Z,4.57
2023-04-20T12:29:07.793Z,6.90
2023-04-20T12:31:36.623Z,7.18
2023-04-20T12:34:04.841Z,9.25
2023-04-20T12:36:34.983Z,7.50
2023-04-20T12:39:05.137Z,4.78
2023-04-20T12:41:33.216Z,9.55
2023-04-20T12:44:04.151Z,7.43
2023-04-20T12:46:32.507Z,7.38
2023-04-20T12:49:00.490Z,4.40
2023-04-20T12:51:28.562Z,10.30
2023-04-20T12:53:56.593Z,7.00
2023-04-20T12:56:25.984Z,6.20
2023-04-20T12:58:53.974Z,13.95
2023-04-20T13:01:22.061Z,3.90
2023-04-20T13:03:51.930Z,7.23
2023-04-20T13:06:19.977Z,7.07
2023-04-20T13:08:48.123Z,6.00
2023-04-20T13:11:17.371Z,5.43
2023-04-20T13:13:46.672Z,7.03
2023-04-20T13:16:14.685Z,6.38
2023-04-20T13:18:42.726Z,6.65
2023-04-20T13:21:10.885Z,14.68
2023-04-20T13:23:39.976Z,4.75
2023-04-20T13:26:08.674Z,5.77
2023-04-20T13:28:37.678Z,4.50
2023-04-20T13:31:07.184Z,8.13
2023-04-20T13:33:35.256Z,8.80
2023-04-20T13:36:03.425Z,7.77
2023-04-20T13:38:31.530Z,10.57
2023-04-20T13:40:59.716Z,8.43
2023-04-20T13:43:27.838Z,6.47
2023-04-20T13:45:55.825Z,10.20
2023-04-20T13:48:25.304Z,13.77
2023-04-20T13:50:54.083Z,9.70
2023-04-20T13:53:22.591Z,11.43
2023-04-20T13:55:50.554Z,9.97
2023-04-20T13:58:18.492Z,8.13
2023-04-20T14:00:46.734Z,7.47
2023-04-20T14:03:15.530Z,9.00
2023-04-20T14:05:45.917Z,10.05
2023-04-20T14:08:14.734Z,9.87
2023-04-20T14:10:42.754Z,8.13
2023-04-20T14:13:10.792Z,11.40
2023-04-20T14:15:38.873Z,8.18
2023-04-20T14:18:07.035Z,9.80
2023-04-20T14:20:35.103Z,7.70
2023-04-20T14:23:04.526Z,8.55
2023-04-20T14:25:32.580Z,9.15
2023-04-20T14:28:00.554Z,7.80
2023-04-20T14:30:28.708Z,6.82
2023-04-20T14:32:58.017Z,5.15
2023-04-20T14:35:27.464Z,8.05
2023-04-20T14:37:55.615Z,7.73
2023-04-20T14:40:25.008Z,60.17
2023-04-20T14:42:53.022Z,6.33
2023-04-20T14:45:21.780Z,9.23
2023-04-20T14:47:54.223Z,6.83
2023-04-20T14:50:23.244Z,6.63
2023-04-20T14:52:51.176Z,7.63
2023-04-20T14:55:23.318Z,8.13
2023-04-20T14:57:55.259Z,7.37
2023-04-20T15:00:24.452Z,9.03
2023-04-20T15:02:53.947Z,9.43
2023-04-20T15:05:22.211Z,5.57
2023-04-20T15:07:50.905Z,7.33
2023-04-20T15:10:19.170Z,9.15
2023-04-20T15:12:49.097Z,9.20
2023-04-20T15:15:18.539Z,6.97
2023-04-20T15:17:47.437Z,7.10
2023-04-20T15:20:16.442Z,7.10
2023-04-20T15:22:44.486Z,7.27
2023-04-20T15:25:12.597Z,14.27
2023-04-20T15:27:40.995Z,8.13
2023-04-20T15:30:10.173Z,7.33
2023-04-20T15:32:40.187Z,8.57
2023-04-20T15:35:08.356Z,13.03
2023-04-20T15:37:36.290Z,7.50
2023-04-20T15:40:05.453Z,10.20
2023-04-20T15:42:33.926Z,15.50
2023-04-20T15:45:01.926Z,11.27
2023-04-20T15:47:29.927Z,9.37
2023-04-20T15:50:01.430Z,5.77
2023-04-20T15:52:30.564Z,9.00
2023-04-20T15:54:58.711Z,7.40
2023-04-20T15:57:26.731Z,8.03
2023-04-20T15:59:55.666Z,9.07
2023-04-20T16:02:24.024Z,6.50
2023-04-20T16:04:52.378Z,12.70
2023-04-20T16:07:21.824Z,8.67
2023-04-20T16:09:50.102Z,6.87
2023-04-20T16:12:18.105Z,7.13
2023-04-20T16:14:46.085Z,5.73
2023-04-20T16:17:14.150Z,11.93
2023-04-20T16:19:42.465Z,11.47
2023-04-20T16:22:10.550Z,10.13
2023-04-20T16:24:40.177Z,10.87
2023-04-20T16:27:08.490Z,9.97
2023-04-20T16:29:37.161Z,6.70
2023-04-20T16:32:05.444Z,15.70
2023-04-20T16:34:33.457Z,10.30
2023-04-20T16:37:01.511Z,9.83
2023-04-20T16:39:29.604Z,11.50
2023-04-20T16:41:58.987Z,7.53
2023-04-20T16:44:27.072Z,9.97
2023-04-20T16:46:55.782Z,9.03
2023-04-20T16:49:24.066Z,11.17
2023-04-20T16:51:52.460Z,8.93
2023-04-20T16:54:21.454Z,27.67
2023-04-20T16:56:51.432Z,8.67
2023-04-20T16:59:20.825Z,8.63
2023-04-20T17:01:50.210Z,8.63
2023-04-20T17:04:18.730Z,9.87
2023-04-20T17:06:47.337Z,11.07
2023-04-20T17:09:15.512Z,9.47
2023-04-20T17:11:43.486Z,11.53
2023-04-20T17:14:11.700Z,12.23
2023-04-20T17:16:41.157Z,11.87
2023-04-20T17:19:21.178Z,13.17
2023-04-20T17:22:08.346Z,10.97
2023-04-20T17:24:40.977Z,16.37
2023-04-20T17:27:09.135Z,9.10
2023-04-20T17:29:38.705Z,9.37
2023-04-20T17:32:08.691Z,10.30
2023-04-20T17:34:36.930Z,11.33
2023-04-20T17:37:04.914Z,14.67
2023-04-20T17:39:32.994Z,9.97
2023-04-20T17:42:01.520Z,17.37
2023-04-20T17:44:29.540Z,16.27
2023-04-20T17:46:59.236Z,14.23
2023-04-20T17:49:31.112Z,10.87
2023-04-20T17:51:59.509Z,11.97
2023-04-20T17:54:27.544Z,10.90
2023-04-20T17:56:56.907Z,10.73
2023-04-20T17:59:24.833Z,11.93
2023-04-20T18:01:53.115Z,13.53
2023-04-20T18:04:21.975Z,12.07
2023-04-20T18:06:52.417Z,15.40
2023-04-20T18:09:20.506Z,11.87
2023-04-20T18:11:48.511Z,15.43
2023-04-20T18:14:16.763Z,14.50
2023-04-20T18:16:44.994Z,13.53
2023-04-20T18:19:13.016Z,17.33
2023-04-20T18:21:41.082Z,19.40
2023-04-20T18:24:13.071Z,19.57
2023-04-20T18:26:41.213Z,14.83
2023-04-20T18:29:09.241Z,15.73
2023-04-20T18:31:37.363Z,20.43
2023-04-20T18:34:05.973Z,24.03
2023-04-20T18:36:33.955Z,18.43
2023-04-20T18:39:01.958Z,20.07
2023-04-20T18:41:31.390Z,21.87
2023-04-20T18:43:59.513Z,21.33
2023-04-20T18:46:27.594Z,20.70
2023-04-20T18:48:55.658Z,18.30
2023-04-20T18:51:23.672Z,27.53
2023-04-20T18:53:51.649Z,28.73
2023-04-20T18:56:19.629Z,17.90
2023-04-20T18:58:49.136Z,17.77
2023-04-20T19:01:18.095Z,23.43
2023-04-20T19:03:47.992Z,26.10
2023-04-20T19:06:16.561Z,22.20
2023-04-20T19:08:44.535Z,19.77
2023-04-20T19:11:12.586Z,22.93
2023-04-20T19:13:44.411Z,18.03
2023-04-20T19:16:14.110Z,21.37
2023-04-20T19:18:42.124Z,20.87
2023-04-20T19:21:11.173Z,17.03
2023-04-20T19:23:39.160Z,17.60
2023-04-20T19:26:07.166Z,17.03
2023-04-20T19:28:35.560Z,20.40
2023-04-20T19:31:03.713Z,21.17
2023-04-20T19:33:33.062Z,14.00
2023-04-20T19:36:03.270Z,15.73
2023-04-20T19:38:32.766Z,22.30
2023-04-20T19:41:01.144Z,18.43
2023-04-20T19:43:29.190Z,22.13
2023-04-20T19:45:57.235Z,17.90
2023-04-20T19:48:25.577Z,22.37
2023-04-20T19:50:56.542Z,21.53
2023-04-20T19:53:25.179Z,16.27
2023-04-20T19:55:53.222Z,18.33
2023-04-20T19:58:21.362Z,110.47
2023-04-20T20:00:49.481Z,17.23
2023-04-20T20:03:17.683Z,20.67
2023-04-20T20:05:45.946Z,17.03
2023-04-20T20:08:16.535Z,14.67
2023-04-20T20:10:44.536Z,14.63
2023-04-20T20:13:12.604Z,16.33
2023-04-20T20:15:40.730Z,14.97
2023-04-20T20:18:10.553Z,16.20
2023-04-20T20:20:38.727Z,16.40
2023-04-20T20:23:06.679Z,15.73
2023-04-20T20:25:36.190Z,15.70
2023-04-20T20:28:04.161Z,14.37
2023-04-20T20:30:32.249Z,13.83
2023-04-20T20:33:00.827Z,16.47
2023-04-20T20:35:31.137Z,15.33
2023-04-20T20:37:59.361Z,13.50
2023-04-20T20:40:27.381Z,12.60
2023-04-20T20:42:56.868Z,15.77
2023-04-20T20:45:25.113Z,17.47
2023-04-20T20:47:53.184Z,14.93
2023-04-20T20:50:21.456Z,17.57
2023-04-20T20:52:49.553Z,15.70
2023-04-20T20:55:17.662Z,15.37
2023-04-20T20:57:46.005Z,14.43
2023-04-20T21:00:16.339Z,19.47
2023-04-20T21:02:44.463Z,26.27
2023-04-20T21:05:12.616Z,15.97
2023-04-20T21:07:40.908Z,40.57
2023-04-20T21:10:09.714Z,30.50
2023-04-20T21:12:37.696Z,14.40
2023-04-20T21:15:06.502Z,14.67
2023-04-20T21:17:35.997Z,14.60
2023-04-20T21:20:05.769Z,12.33
2023-04-20T21:22:33.858Z,14.87
2023-04-20T21:25:01.860Z,13.77
2023-04-20T21:27:29.959Z,13.30
2023-04-20T21:29:57.989Z,15.00
2023-04-20T21:32:27.185Z,17.00
2023-04-20T21:34:56.624Z,14.87
2023-04-20T21:37:24.594Z,13.27
2023-04-20T21:39:52.683Z,13.13
2023-04-20T21:42:20.699Z,16.57
2023-04-20T21:44:48.723Z,19.10
2023-04-20T21:47:16.927Z,18.17
2023-04-20T21:49:44.986Z,16.17
2023-04-20T21:52:14.313Z,15.83
2023-04-20T21:54:42.531Z,16.57
2023-04-20T21:57:10.545Z,15.20
2023-04-20T21:59:38.509Z,16.80
2023-04-20T22:02:06.525Z,12.67
2023-04-20T22:04:34.995Z,15.03
2023-04-20T22:07:03.152Z,19.30
2023-04-20T22:09:32.617Z,15.90
2023-04-20T22:12:02.025Z,12.80
2023-04-20T22:14:30.482Z,16.67
2023-04-20T22:16:59.442Z,16.53
2023-04-20T22:19:27.727Z,16.47
2023-04-20T22:21:55.708Z,14.33
2023-04-20T22:24:24.103Z,14.70
2023-04-20T22:26:53.474Z,14.37
2023-04-20T22:29:21.700Z,16.20
2023-04-20T22:31:49.801Z,21.23
2023-04-20T22:34:17.888Z,18.47
2023-04-20T22:36:46.332Z,15.03
2023-04-20T22:39:14.289Z,15.43
2023-04-20T22:41:42.310Z,14.47
2023-04-20T22:44:14.361Z,14.77
2023-04-20T22:46:42.342Z,14.30
2023-04-20T22:49:10.898Z,14.63
2023-04-20T22:51:38.804Z,14.10
2023-04-20T22:54:06.837Z,14.77
2023-04-20T22:56:35.149Z,15.37
2023-04-20T22:59:03.093Z,15.13
2023-04-20T23:01:32.414Z,14.83
2023-04-20T23:04:00.761Z,14.30
2023-04-20T23:06:29.680Z,14.97
2023-04-20T23:08:59.061Z,15.60
2023-04-20T23:11:29.046Z,17.67
2023-04-20T23:13:57.220Z,16.33
2023-04-20T23:16:28.059Z,13.37
2023-04-20T23:18:57.440Z,15.43
2023-04-20T23:21:25.501Z,14.07
2023-04-20T23:23:53.447Z,12.17
2023-04-20T23:26:21.394Z,15.00
2023-04-20T23:28:51.370Z,16.10
2023-04-20T23:31:19.520Z,12.83
2023-04-20T23:33:48.311Z,13.97
2023-04-20T23:36:17.698Z,12.13
2023-04-20T23:38:45.670Z,13.77
2023-04-20T23:41:15.137Z,13.83
2023-04-20T23:43:43.236Z,15.33
2023-04-20T23:46:12.631Z,14.03
2023-04-20T23:48:40.667Z,11.97
2023-04-20T23:51:08.641Z,14.23
2023-04-20T23:53:39.117Z,15.33
2023-04-20T23:56:08.121Z,12.50
2023-04-20T23:58:36.357Z,12.30
